sensor_id;sensor_type;location;lat;lon;timestamp;P1;durP1;ratioP1;P2;durP2;ratioP2
71655;SDS011;59497;48.798;8.816;2023-04-01T00:01:12;1.65;;;0.15;;
71655;SDS011;59497;48.798;8.816;2023-04-01T00:03:41;1.65;;;0.50;;
71655;SDS011;59497;48.798;8.816;2023-04-01T00:06:06;2.60;;;0.40;;
71655;SDS011;59497;48.798;8.816;2023-04-01T00:08:31;0.57;;;0.40;;
71655;SDS011;59497;48.798;8.816;2023-04-01T00:10:57;1.23;;;0.60;;
71655;SDS011;59497;48.798;8.816;2023-04-01T00:13:22;2.63;;;0.20;;
71655;SDS011;59497;48.798;8.816;2023-04-01T00:15:48;2.20;;;0.43;;
71655;SDS011;59497;48.798;8.816;2023-04-01T00:18:13;2.83;;;0.30;;
71655;SDS011;59497;48.798;8.816;2023-04-01T00:20:38;4.37;;;0.40;;
71655;SDS011;59497;48.798;8.816;2023-04-01T00:23:04;2.23;;;0.40;;
71655;SDS011;59497;48.798;8.816;2023-04-01T00:25:30;2.92;;;0.65;;
71655;SDS011;59497;48.798;8.816;2023-04-01T00:27:55;5.93;;;0.93;;
71655;SDS011;59497;48.798;8.816;2023-04-01T00:30:21;1.17;;;0.20;;
71655;SDS011;59497;48.798;8.816;2023-04-01T00:32:46;2.93;;;0.50;;
71655;SDS011;59497;48.798;8.816;2023-04-01T00:35:11;2.33;;;0.30;;
71655;SDS011;59497;48.798;8.816;2023-04-01T00:37:37;0.77;;;0.15;;
71655;SDS011;59497;48.798;8.816;2023-04-01T00:40:04;1.00;;;0.20;;
71655;SDS011;59497;48.798;8.816;2023-04-01T00:42:30;0.38;;;0.20;;
71655;SDS011;59497;48.798;8.816;2023-04-01T00:44:55;1.30;;;0.10;;
71655;SDS011;59497;48.798;8.816;2023-04-01T00:47:21;1.10;;;0.43;;
71655;SDS011;59497;48.798;8.816;2023-04-01T00:49:48;0.93;;;0.10;;
71655;SDS011;59497;48.798;8.816;2023-04-01T00:52:15;2.47;;;0.17;;
71655;SDS011;59497;48.798;8.816;2023-04-01T00:54:42;1.83;;;0.25;;
71655;SDS011;59497;48.798;8.816;2023-04-01T00:57:12;0.60;;;0.10;;
71655;SDS011;59497;48.798;8.816;2023-04-01T00:59:48;1.52;;;0.20;;
71655;SDS011;59497;48.798;8.816;2023-04-01T01:02:14;1.20;;;0.37;;
71655;SDS011;59497;48.798;8.816;2023-04-01T01:04:40;1.48;;;0.20;;
71655;SDS011;59497;48.798;8.816;2023-04-01T01:07:12;2.27;;;0.50;;
71655;SDS011;59497;48.798;8.816;2023-04-01T01:12:14;2.30;;;0.23;;
71655;SDS011;59497;48.798;8.816;2023-04-01T01:22:49;0.20;;;0.10;;
71655;SDS011;59497;48.798;8.816;2023-04-01T01:28:00;0.55;;;0.20;;
71655;SDS011;59497;48.798;8.816;2023-04-01T01:30:37;0.98;;;0.15;;
71655;SDS011;59497;48.798;8.816;2023-04-01T01:33:14;2.55;;;0.25;;
71655;SDS011;59497;48.798;8.816;2023-04-01T01:35:46;0.93;;;0.10;;
71655;SDS011;59497;48.798;8.816;2023-04-01T01:38:16;1.43;;;0.10;;
71655;SDS011;59497;48.798;8.816;2023-04-01T01:40:42;1.45;;;0.20;;
71655;SDS011;59497;48.798;8.816;2023-04-01T01:43:09;0.52;;;0.10;;
71655;SDS011;59497;48.798;8.816;2023-04-01T01:45:36;1.42;;;0.10;;
71655;SDS011;59497;48.798;8.816;2023-04-01T01:48:04;1.35;;;0.13;;
71655;SDS011;59497;48.798;8.816;2023-04-01T01:50:30;0.87;;;0.10;;
71655;SDS011;59497;48.798;8.816;2023-04-01T01:53:02;1.50;;;0.10;;
71655;SDS011;59497;48.798;8.816;2023-04-01T01:55:32;1.23;;;0.10;;
71655;SDS011;59497;48.798;8.816;2023-04-01T01:57:58;2.58;;;0.40;;
71655;SDS011;59497;48.798;8.816;2023-04-01T02:00:24;1.38;;;0.40;;
71655;SDS011;59497;48.798;8.816;2023-04-01T02:02:51;2.25;;;0.20;;
71655;SDS011;59497;48.798;8.816;2023-04-01T02:05:21;2.43;;;0.40;;
71655;SDS011;59497;48.798;8.816;2023-04-01T02:07:49;2.08;;;0.20;;
71655;SDS011;59497;48.798;8.816;2023-04-01T02:10:17;2.30;;;0.10;;
71655;SDS011;59497;48.798;8.816;2023-04-01T02:12:43;0.70;;;0.30;;
71655;SDS011;59497;48.798;8.816;2023-04-01T02:15:11;0.77;;;0.20;;
71655;SDS011;59497;48.798;8.816;2023-04-01T02:17:38;0.50;;;0.10;;
71655;SDS011;59497;48.798;8.816;2023-04-01T02:20:06;1.48;;;0.15;;
71655;SDS011;59497;48.798;8.816;2023-04-01T02:22:37;1.27;;;0.37;;
71655;SDS011;59497;48.798;8.816;2023-04-01T02:25:06;0.55;;;0.10;;
71655;SDS011;59497;48.798;8.816;2023-04-01T02:27:32;1.02;;;0.20;;
71655;SDS011;59497;48.798;8.816;2023-04-01T02:29:57;1.67;;;0.27;;
71655;SDS011;59497;48.798;8.816;2023-04-01T02:32:23;0.90;;;0.10;;
71655;SDS011;59497;48.798;8.816;2023-04-01T02:34:49;1.50;;;0.35;;
71655;SDS011;59497;48.798;8.816;2023-04-01T02:37:15;2.53;;;0.40;;
71655;SDS011;59497;48.798;8.816;2023-04-01T02:39:40;1.55;;;0.10;;
71655;SDS011;59497;48.798;8.816;2023-04-01T02:42:07;1.65;;;0.22;;
71655;SDS011;59497;48.798;8.816;2023-04-01T02:44:32;0.50;;;0.10;;
71655;SDS011;59497;48.798;8.816;2023-04-01T02:46:58;1.13;;;0.40;;
71655;SDS011;59497;48.798;8.816;2023-04-01T02:49:23;2.75;;;0.20;;
71655;SDS011;59497;48.798;8.816;2023-04-01T02:51:48;2.30;;;0.35;;
71655;SDS011;59497;48.798;8.816;2023-04-01T02:54:13;1.30;;;0.30;;
71655;SDS011;59497;48.798;8.816;2023-04-01T02:56:38;1.63;;;0.20;;
71655;SDS011;59497;48.798;8.816;2023-04-01T02:59:03;1.17;;;0.10;;
71655;SDS011;59497;48.798;8.816;2023-04-01T03:01:29;3.00;;;0.30;;
71655;SDS011;59497;48.798;8.816;2023-04-01T03:03:54;2.90;;;0.30;;
71655;SDS011;59497;48.798;8.816;2023-04-01T03:06:19;0.30;;;0.20;;
71655;SDS011;59497;48.798;8.816;2023-04-01T03:08:44;1.53;;;0.73;;
71655;SDS011;59497;48.798;8.816;2023-04-01T03:11:10;0.87;;;0.17;;
71655;SDS011;59497;48.798;8.816;2023-04-01T03:13:35;0.83;;;0.20;;
71655;SDS011;59497;48.798;8.816;2023-04-01T03:16:01;0.30;;;0.30;;
71655;SDS011;59497;48.798;8.816;2023-04-01T03:18:26;1.23;;;0.03;;
71655;SDS011;59497;48.798;8.816;2023-04-01T03:20:51;1.15;;;0.30;;
71655;SDS011;59497;48.798;8.816;2023-04-01T03:23:17;2.27;;;0.20;;
71655;SDS011;59497;48.798;8.816;2023-04-01T03:25:44;0.43;;;0.10;;
71655;SDS011;59497;48.798;8.816;2023-04-01T03:28:09;1.43;;;0.20;;
71655;SDS011;59497;48.798;8.816;2023-04-01T03:30:35;2.13;;;0.23;;
71655;SDS011;59497;48.798;8.816;2023-04-01T03:33:00;0.80;;;0.47;;
71655;SDS011;59497;48.798;8.816;2023-04-01T03:35:26;3.13;;;0.30;;
71655;SDS011;59497;48.798;8.816;2023-04-01T03:37:53;2.15;;;0.20;;
71655;SDS011;59497;48.798;8.816;2023-04-01T03:40:18;0.93;;;0.20;;
71655;SDS011;59497;48.798;8.816;2023-04-01T03:42:43;1.30;;;0.10;;
71655;SDS011;59497;48.798;8.816;2023-04-01T03:45:09;0.87;;;0.10;;
71655;SDS011;59497;48.798;8.816;2023-04-01T03:47:34;1.13;;;0.10;;
71655;SDS011;59497;48.798;8.816;2023-04-01T03:49:59;1.47;;;0.20;;
71655;SDS011;59497;48.798;8.816;2023-04-01T03:52:25;1.23;;;0.20;;
71655;SDS011;59497;48.798;8.816;2023-04-01T03:54:50;0.63;;;0.10;;
71655;SDS011;59497;48.798;8.816;2023-04-01T03:57:15;0.73;;;0.20;;
71655;SDS011;59497;48.798;8.816;2023-04-01T03:59:40;0.83;;;0.20;;
71655;SDS011;59497;48.798;8.816;2023-04-01T04:02:05;0.75;;;0.10;;
71655;SDS011;59497;48.798;8.816;2023-04-01T04:04:30;2.43;;;0.03;;
71655;SDS011;59497;48.798;8.816;2023-04-01T04:06:57;2.45;;;0.22;;
71655;SDS011;59497;48.798;8.816;2023-04-01T04:09:22;1.27;;;0.20;;
71655;SDS011;59497;48.798;8.816;2023-04-01T04:11:48;1.80;;;0.20;;
71655;SDS011;59497;48.798;8.816;2023-04-01T04:14:13;0.65;;;0.20;;
71655;SDS011;59497;48.798;8.816;2023-04-01T04:16:38;0.70;;;0.10;;
71655;SDS011;59497;48.798;8.816;2023-04-01T04:19:03;2.43;;;0.50;;
71655;SDS011;59497;48.798;8.816;2023-04-01T04:21:29;0.90;;;0.30;;
71655;SDS011;59497;48.798;8.816;2023-04-01T04:23:54;1.43;;;0.27;;
71655;SDS011;59497;48.798;8.816;2023-04-01T04:26:19;2.83;;;0.33;;
71655;SDS011;59497;48.798;8.816;2023-04-01T04:28:45;1.30;;;0.30;;
71655;SDS011;59497;48.798;8.816;2023-04-01T04:31:10;1.50;;;0.30;;
71655;SDS011;59497;48.798;8.816;2023-04-01T04:33:35;1.47;;;0.20;;
71655;SDS011;59497;48.798;8.816;2023-04-01T04:36:01;1.27;;;0.27;;
71655;SDS011;59497;48.798;8.816;2023-04-01T04:38:26;1.60;;;0.07;;
71655;SDS011;59497;48.798;8.816;2023-04-01T04:40:51;1.33;;;0.23;;
71655;SDS011;59497;48.798;8.816;2023-04-01T04:43:17;0.45;;;0.13;;
71655;SDS011;59497;48.798;8.816;2023-04-01T04:45:42;0.75;;;0.20;;
71655;SDS011;59497;48.798;8.816;2023-04-01T04:48:08;1.70;;;0.20;;
71655;SDS011;59497;48.798;8.816;2023-04-01T04:50:34;0.85;;;0.25;;
71655;SDS011;59497;48.798;8.816;2023-04-01T04:52:59;1.63;;;0.20;;
71655;SDS011;59497;48.798;8.816;2023-04-01T04:55:25;4.00;;;0.30;;
71655;SDS011;59497;48.798;8.816;2023-04-01T04:57:50;1.17;;;0.40;;
71655;SDS011;59497;48.798;8.816;2023-04-01T05:00:15;3.67;;;0.23;;
71655;SDS011;59497;48.798;8.816;2023-04-01T05:02:40;2.27;;;0.30;;
71655;SDS011;59497;48.798;8.816;2023-04-01T05:05:06;1.83;;;0.10;;
71655;SDS011;59497;48.798;8.816;2023-04-01T05:07:31;3.45;;;0.35;;
71655;SDS011;59497;48.798;8.816;2023-04-01T05:09:57;3.23;;;0.10;;
71655;SDS011;59497;48.798;8.816;2023-04-01T05:12:22;2.43;;;0.10;;
71655;SDS011;59497;48.798;8.816;2023-04-01T05:14:48;0.83;;;0.20;;
71655;SDS011;59497;48.798;8.816;2023-04-01T05:17:13;2.43;;;0.10;;
71655;SDS011;59497;48.798;8.816;2023-04-01T05:19:38;0.83;;;0.33;;
71655;SDS011;59497;48.798;8.816;2023-04-01T05:22:04;2.60;;;0.20;;
71655;SDS011;59497;48.798;8.816;2023-04-01T05:24:30;0.73;;;0.10;;
71655;SDS011;59497;48.798;8.816;2023-04-01T05:26:55;2.47;;;0.35;;
71655;SDS011;59497;48.798;8.816;2023-04-01T05:29:21;0.67;;;0.10;;
71655;SDS011;59497;48.798;8.816;2023-04-01T05:31:46;2.60;;;0.40;;
71655;SDS011;59497;48.798;8.816;2023-04-01T05:34:11;2.13;;;0.20;;
71655;SDS011;59497;48.798;8.816;2023-04-01T05:36:36;1.77;;;0.10;;
71655;SDS011;59497;48.798;8.816;2023-04-01T05:39:02;0.97;;;0.40;;
71655;SDS011;59497;48.798;8.816;2023-04-01T05:41:28;0.50;;;0.40;;
71655;SDS011;59497;48.798;8.816;2023-04-01T05:43:53;1.63;;;0.30;;
71655;SDS011;59497;48.798;8.816;2023-04-01T05:46:18;1.07;;;0.20;;
71655;SDS011;59497;48.798;8.816;2023-04-01T05:48:43;2.33;;;0.30;;
71655;SDS011;59497;48.798;8.816;2023-04-01T05:51:12;1.07;;;0.20;;
71655;SDS011;59497;48.798;8.816;2023-04-01T05:53:38;2.10;;;0.17;;
71655;SDS011;59497;48.798;8.816;2023-04-01T05:56:04;0.53;;;0.10;;
71655;SDS011;59497;48.798;8.816;2023-04-01T05:58:29;0.63;;;0.03;;
71655;SDS011;59497;48.798;8.816;2023-04-01T06:01:00;1.97;;;0.27;;
71655;SDS011;59497;48.798;8.816;2023-04-01T06:03:25;1.02;;;0.20;;
71655;SDS011;59497;48.798;8.816;2023-04-01T06:05:50;1.08;;;0.10;;
71655;SDS011;59497;48.798;8.816;2023-04-01T06:08:16;0.77;;;0.22;;
71655;SDS011;59497;48.798;8.816;2023-04-01T06:10:45;1.95;;;0.20;;
71655;SDS011;59497;48.798;8.816;2023-04-01T06:13:30;1.70;;;0.30;;
71655;SDS011;59497;48.798;8.816;2023-04-01T06:16:01;1.40;;;0.10;;
71655;SDS011;59497;48.798;8.816;2023-04-01T06:26:14;1.45;;;0.20;;
71655;SDS011;59497;48.798;8.816;2023-04-01T06:28:48;0.30;;;0.10;;
71655;SDS011;59497;48.798;8.816;2023-04-01T06:46:42;0.52;;;0.20;;
71655;SDS011;59497;48.798;8.816;2023-04-01T06:51:38;0.13;;;0.10;;
71655;SDS011;59497;48.798;8.816;2023-04-01T06:54:18;0.28;;;0.10;;
71655;SDS011;59497;48.798;8.816;2023-04-01T06:56:45;2.47;;;0.50;;
71655;SDS011;59497;48.798;8.816;2023-04-01T06:59:20;0.50;;;0.20;;
71655;SDS011;59497;48.798;8.816;2023-04-01T07:01:48;1.95;;;0.40;;
71655;SDS011;59497;48.798;8.816;2023-04-01T07:04:15;1.00;;;0.10;;
71655;SDS011;59497;48.798;8.816;2023-04-01T07:06:45;0.80;;;0.20;;
71655;SDS011;59497;48.798;8.816;2023-04-01T07:09:13;0.63;;;0.13;;
71655;SDS011;59497;48.798;8.816;2023-04-01T07:11:39;0.80;;;0.22;;
71655;SDS011;59497;48.798;8.816;2023-04-01T07:14:50;0.63;;;0.20;;
71655;SDS011;59497;48.798;8.816;2023-04-01T07:16:58;1.75;;;0.05;;
71655;SDS011;59497;48.798;8.816;2023-04-01T07:19:31;1.45;;;0.30;;
71655;SDS011;59497;48.798;8.816;2023-04-01T07:22:00;0.45;;;0.10;;
71655;SDS011;59497;48.798;8.816;2023-04-01T07:24:32;0.30;;;0.10;;
71655;SDS011;59497;48.798;8.816;2023-04-01T07:26:58;1.00;;;0.20;;
71655;SDS011;59497;48.798;8.816;2023-04-01T07:29:23;1.77;;;0.40;;
71655;SDS011;59497;48.798;8.816;2023-04-01T07:36:44;0.63;;;0.20;;
71655;SDS011;59497;48.798;8.816;2023-04-01T07:49:31;0.47;;;0.15;;
71655;SDS011;59497;48.798;8.816;2023-04-01T07:55:01;0.40;;;0.10;;
71655;SDS011;59497;48.798;8.816;2023-04-01T07:57:36;0.75;;;0.20;;
71655;SDS011;59497;48.798;8.816;2023-04-01T08:00:09;0.83;;;0.20;;
71655;SDS011;59497;48.798;8.816;2023-04-01T08:07:46;0.55;;;0.20;;
71655;SDS011;59497;48.798;8.816;2023-04-01T08:12:43;0.60;;;0.30;;
71655;SDS011;59497;48.798;8.816;2023-04-01T08:20:07;0.40;;;0.30;;
71655;SDS011;59497;48.798;8.816;2023-04-01T08:22:38;1.77;;;0.10;;
71655;SDS011;59497;48.798;8.816;2023-04-01T08:25:05;1.38;;;0.50;;
71655;SDS011;59497;48.798;8.816;2023-04-01T08:27:44;2.05;;;0.50;;
71655;SDS011;59497;48.798;8.816;2023-04-01T08:30:15;0.77;;;0.60;;
71655;SDS011;59497;48.798;8.816;2023-04-01T08:32:42;0.90;;;0.20;;
71655;SDS011;59497;48.798;8.816;2023-04-01T08:35:14;1.60;;;0.20;;
71655;SDS011;59497;48.798;8.816;2023-04-01T08:37:41;1.63;;;0.43;;
71655;SDS011;59497;48.798;8.816;2023-04-01T08:48:12;0.93;;;0.10;;
71655;SDS011;59497;48.798;8.816;2023-04-01T08:50:46;0.20;;;0.17;;
71655;SDS011;59497;48.798;8.816;2023-04-01T08:53:35;0.50;;;0.20;;
71655;SDS011;59497;48.798;8.816;2023-04-01T09:16:58;0.20;;;0.20;;
71655;SDS011;59497;48.798;8.816;2023-04-01T09:37:52;0.30;;;0.17;;
71655;SDS011;59497;48.798;8.816;2023-04-01T09:43:06;0.20;;;0.20;;
71655;SDS011;59497;48.798;8.816;2023-04-01T09:51:12;0.50;;;0.20;;
71655;SDS011;59497;48.798;8.816;2023-04-01T09:56:18;0.30;;;0.20;;
71655;SDS011;59497;48.798;8.816;2023-04-01T10:01:23;0.10;;;0.10;;
71655;SDS011;59497;48.798;8.816;2023-04-01T10:06:38;0.43;;;0.10;;
71655;SDS011;59497;48.798;8.816;2023-04-01T10:17:12;0.20;;;0.20;;
71655;SDS011;59497;48.798;8.816;2023-04-01T10:35:08;0.67;;;0.10;;
71655;SDS011;59497;48.798;8.816;2023-04-01T10:37:48;0.40;;;0.10;;
71655;SDS011;59497;48.798;8.816;2023-04-01T10:45:40;0.20;;;0.10;;
71655;SDS011;59497;48.798;8.816;2023-04-01T10:51:04;0.30;;;0.22;;
71655;SDS011;59497;48.798;8.816;2023-04-01T10:53:43;0.20;;;0.20;;
71655;SDS011;59497;48.798;8.816;2023-04-01T11:02:17;0.10;;;0.10;;
71655;SDS011;59497;48.798;8.816;2023-04-01T11:04:52;0.13;;;0.10;;
71655;SDS011;59497;48.798;8.816;2023-04-01T11:07:28;0.20;;;0.20;;
71655;SDS011;59497;48.798;8.816;2023-04-01T11:13:06;0.38;;;0.32;;
71655;SDS011;59497;48.798;8.816;2023-04-01T11:18:17;0.55;;;0.08;;
71655;SDS011;59497;48.798;8.816;2023-04-01T11:23:42;0.15;;;0.10;;
71655;SDS011;59497;48.798;8.816;2023-04-01T11:26:09;0.20;;;0.20;;
71655;SDS011;59497;48.798;8.816;2023-04-01T11:31:50;0.40;;;0.28;;
71655;SDS011;59497;48.798;8.816;2023-04-01T11:44:26;0.40;;;0.20;;
71655;SDS011;59497;48.798;8.816;2023-04-01T11:52:04;0.10;;;0.10;;
71655;SDS011;59497;48.798;8.816;2023-04-01T12:00:32;0.17;;;0.17;;
71655;SDS011;59497;48.798;8.816;2023-04-01T12:10:19;0.20;;;0.20;;
71655;SDS011;59497;48.798;8.816;2023-04-01T12:17:48;0.52;;;0.15;;
71655;SDS011;59497;48.798;8.816;2023-04-01T12:22:49;0.63;;;0.20;;
71655;SDS011;59497;48.798;8.816;2023-04-01T12:35:21;0.30;;;0.30;;
71655;SDS011;59497;48.798;8.816;2023-04-01T12:37:55;0.70;;;0.40;;
71655;SDS011;59497;48.798;8.816;2023-04-01T12:54:10;0.22;;;0.20;;
71655;SDS011;59497;48.798;8.816;2023-04-01T13:06:53;0.57;;;0.20;;
71655;SDS011;59497;48.798;8.816;2023-04-01T13:19:33;0.20;;;0.20;;
71655;SDS011;59497;48.798;8.816;2023-04-01T13:27:12;0.40;;;0.20;;
71655;SDS011;59497;48.798;8.816;2023-04-01T13:29:49;0.40;;;0.40;;
71655;SDS011;59497;48.798;8.816;2023-04-01T13:42:34;0.20;;;0.20;;
71655;SDS011;59497;48.798;8.816;2023-04-01T13:45:19;0.60;;;0.40;;
71655;SDS011;59497;48.798;8.816;2023-04-01T13:48:02;0.93;;;0.10;;
71655;SDS011;59497;48.798;8.816;2023-04-01T13:53:22;0.20;;;0.20;;
71655;SDS011;59497;48.798;8.816;2023-04-01T13:55:55;0.20;;;0.20;;
71655;SDS011;59497;48.798;8.816;2023-04-01T13:58:36;0.45;;;0.30;;
71655;SDS011;59497;48.798;8.816;2023-04-01T14:06:31;0.40;;;0.33;;
71655;SDS011;59497;48.798;8.816;2023-04-01T14:09:10;0.35;;;0.30;;
71655;SDS011;59497;48.798;8.816;2023-04-01T14:11:43;0.17;;;0.10;;
71655;SDS011;59497;48.798;8.816;2023-04-01T14:17:06;0.10;;;0.10;;
71655;SDS011;59497;48.798;8.816;2023-04-01T14:22:23;1.17;;;0.50;;
71655;SDS011;59497;48.798;8.816;2023-04-01T14:29:59;0.40;;;0.22;;
71655;SDS011;59497;48.798;8.816;2023-04-01T14:34:55;0.30;;;0.10;;
71655;SDS011;59497;48.798;8.816;2023-04-01T14:42:27;0.40;;;0.35;;
71655;SDS011;59497;48.798;8.816;2023-04-01T14:45:02;0.30;;;0.30;;
71655;SDS011;59497;48.798;8.816;2023-04-01T14:47:48;0.50;;;0.50;;
71655;SDS011;59497;48.798;8.816;2023-04-01T14:50:16;0.60;;;0.40;;
71655;SDS011;59497;48.798;8.816;2023-04-01T14:52:45;0.28;;;0.28;;
71655;SDS011;59497;48.798;8.816;2023-04-01T14:55:31;0.30;;;0.30;;
71655;SDS011;59497;48.798;8.816;2023-04-01T15:00:54;0.30;;;0.20;;
71655;SDS011;59497;48.798;8.816;2023-04-01T15:04:07;0.40;;;0.40;;
71655;SDS011;59497;48.798;8.816;2023-04-01T15:07:11;0.60;;;0.20;;
71655;SDS011;59497;48.798;8.816;2023-04-01T15:16:39;0.60;;;0.38;;
71655;SDS011;59497;48.798;8.816;2023-04-01T15:22:17;0.68;;;0.68;;
71655;SDS011;59497;48.798;8.816;2023-04-01T15:25:00;0.80;;;0.30;;
71655;SDS011;59497;48.798;8.816;2023-04-01T15:27:33;0.75;;;0.10;;
71655;SDS011;59497;48.798;8.816;2023-04-01T15:30:16;0.20;;;0.20;;
71655;SDS011;59497;48.798;8.816;2023-04-01T15:32:46;0.47;;;0.30;;
71655;SDS011;59497;48.798;8.816;2023-04-01T15:37:46;0.30;;;0.20;;
71655;SDS011;59497;48.798;8.816;2023-04-01T15:40:28;0.22;;;0.22;;
71655;SDS011;59497;48.798;8.816;2023-04-01T15:42:59;0.75;;;0.47;;
71655;SDS011;59497;48.798;8.816;2023-04-01T15:45:31;0.85;;;0.50;;
71655;SDS011;59497;48.798;8.816;2023-04-01T15:55:57;1.00;;;0.40;;
71655;SDS011;59497;48.798;8.816;2023-04-01T16:03:19;1.08;;;0.20;;
71655;SDS011;59497;48.798;8.816;2023-04-01T16:13:53;2.28;;;0.30;;
71655;SDS011;59497;48.798;8.816;2023-04-01T16:19:13;0.90;;;0.20;;
71655;SDS011;59497;48.798;8.816;2023-04-01T16:21:45;0.60;;;0.20;;
71655;SDS011;59497;48.798;8.816;2023-04-01T16:27:14;0.55;;;0.30;;
71655;SDS011;59497;48.798;8.816;2023-04-01T16:35:39;3.42;;;0.90;;
71655;SDS011;59497;48.798;8.816;2023-04-01T16:37:39;2.95;;;1.23;;
71655;SDS011;59497;48.798;8.816;2023-04-01T16:42:44;0.50;;;0.30;;
71655;SDS011;59497;48.798;8.816;2023-04-01T16:45:17;2.10;;;1.10;;
71655;SDS011;59497;48.798;8.816;2023-04-01T16:47:48;4.38;;;2.40;;
71655;SDS011;59497;48.798;8.816;2023-04-01T16:50:24;2.25;;;1.70;;
71655;SDS011;59497;48.798;8.816;2023-04-01T16:52:59;1.85;;;1.00;;
71655;SDS011;59497;48.798;8.816;2023-04-01T16:58:10;2.60;;;1.50;;
71655;SDS011;59497;48.798;8.816;2023-04-01T17:00:40;3.55;;;1.83;;
71655;SDS011;59497;48.798;8.816;2023-04-01T17:11:12;5.35;;;2.50;;
71655;SDS011;59497;48.798;8.816;2023-04-01T17:18:56;2.88;;;1.05;;
71655;SDS011;59497;48.798;8.816;2023-04-01T17:21:39;1.40;;;1.00;;
71655;SDS011;59497;48.798;8.816;2023-04-01T17:27:31;2.15;;;1.00;;
71655;SDS011;59497;48.798;8.816;2023-04-01T17:33:04;1.40;;;1.10;;
71655;SDS011;59497;48.798;8.816;2023-04-01T17:35:19;3.28;;;1.13;;
71655;SDS011;59497;48.798;8.816;2023-04-01T17:38:10;0.95;;;0.80;;
71655;SDS011;59497;48.798;8.816;2023-04-01T17:40:41;2.33;;;1.45;;
71655;SDS011;59497;48.798;8.816;2023-04-01T17:45:53;1.73;;;0.50;;
71655;SDS011;59497;48.798;8.816;2023-04-01T17:48:36;1.08;;;0.52;;
71655;SDS011;59497;48.798;8.816;2023-04-01T18:06:29;3.47;;;1.20;;
71655;SDS011;59497;48.798;8.816;2023-04-01T18:08:58;1.25;;;0.60;;
71655;SDS011;59497;48.798;8.816;2023-04-01T18:21:54;0.93;;;0.30;;
71655;SDS011;59497;48.798;8.816;2023-04-01T18:26:48;2.23;;;0.50;;
71655;SDS011;59497;48.798;8.816;2023-04-01T18:32:47;2.67;;;0.95;;
71655;SDS011;59497;48.798;8.816;2023-04-01T18:37:27;2.77;;;0.80;;
71655;SDS011;59497;48.798;8.816;2023-04-01T18:42:50;1.80;;;1.40;;
71655;SDS011;59497;48.798;8.816;2023-04-01T18:45:30;1.80;;;0.80;;
71655;SDS011;59497;48.798;8.816;2023-04-01T18:48:06;1.63;;;0.50;;
71655;SDS011;59497;48.798;8.816;2023-04-01T18:50:43;1.00;;;0.30;;
71655;SDS011;59497;48.798;8.816;2023-04-01T18:53:19;1.17;;;0.63;;
71655;SDS011;59497;48.798;8.816;2023-04-01T18:58:14;2.10;;;0.60;;
71655;SDS011;59497;48.798;8.816;2023-04-01T19:00:43;0.95;;;0.40;;
71655;SDS011;59497;48.798;8.816;2023-04-01T19:03:24;1.70;;;0.40;;
71655;SDS011;59497;48.798;8.816;2023-04-01T19:05:53;1.30;;;0.70;;
71655;SDS011;59497;48.798;8.816;2023-04-01T19:08:31;3.15;;;0.70;;
71655;SDS011;59497;48.798;8.816;2023-04-01T19:18:48;1.55;;;0.50;;
71655;SDS011;59497;48.798;8.816;2023-04-01T19:21:33;0.47;;;0.23;;
71655;SDS011;59497;48.798;8.816;2023-04-01T19:29:24;0.70;;;0.30;;
71655;SDS011;59497;48.798;8.816;2023-04-01T19:39:27;1.90;;;0.57;;
71655;SDS011;59497;48.798;8.816;2023-04-01T19:52:41;1.70;;;0.65;;
71655;SDS011;59497;48.798;8.816;2023-04-01T20:03:01;2.85;;;2.63;;
71655;SDS011;59497;48.798;8.816;2023-04-01T20:06:02;2.33;;;1.52;;
71655;SDS011;59497;48.798;8.816;2023-04-01T20:08:24;1.80;;;1.00;;
71655;SDS011;59497;48.798;8.816;2023-04-01T20:10:53;1.52;;;0.65;;
71655;SDS011;59497;48.798;8.816;2023-04-01T20:13:42;2.90;;;0.60;;
71655;SDS011;59497;48.798;8.816;2023-04-01T20:16:11;0.85;;;0.47;;
71655;SDS011;59497;48.798;8.816;2023-04-01T20:21:05;2.73;;;1.20;;
71655;SDS011;59497;48.798;8.816;2023-04-01T20:23:38;2.10;;;0.70;;
71655;SDS011;59497;48.798;8.816;2023-04-01T20:26:06;1.67;;;0.80;;
71655;SDS011;59497;48.798;8.816;2023-04-01T20:28:37;2.15;;;1.70;;
71655;SDS011;59497;48.798;8.816;2023-04-01T20:31:22;1.52;;;0.85;;
71655;SDS011;59497;48.798;8.816;2023-04-01T20:36:40;1.85;;;0.90;;
71655;SDS011;59497;48.798;8.816;2023-04-01T20:39:13;3.15;;;0.40;;
71655;SDS011;59497;48.798;8.816;2023-04-01T20:41:56;1.38;;;1.00;;
71655;SDS011;59497;48.798;8.816;2023-04-01T20:47:21;2.43;;;1.37;;
71655;SDS011;59497;48.798;8.816;2023-04-01T20:49:52;1.23;;;0.65;;
71655;SDS011;59497;48.798;8.816;2023-04-01T20:52:24;2.28;;;0.85;;
71655;SDS011;59497;48.798;8.816;2023-04-01T20:57:25;2.05;;;0.50;;
71655;SDS011;59497;48.798;8.816;2023-04-01T21:02:36;1.70;;;0.60;;
71655;SDS011;59497;48.798;8.816;2023-04-01T21:05:11;0.82;;;0.50;;
71655;SDS011;59497;48.798;8.816;2023-04-01T21:18:15;1.47;;;0.47;;
71655;SDS011;59497;48.798;8.816;2023-04-01T21:28:29;0.80;;;0.60;;
71655;SDS011;59497;48.798;8.816;2023-04-01T21:33:45;1.30;;;1.20;;
71655;SDS011;59497;48.798;8.816;2023-04-01T21:36:23;2.03;;;0.80;;
71655;SDS011;59497;48.798;8.816;2023-04-01T21:54:39;1.35;;;0.73;;
71655;SDS011;59497;48.798;8.816;2023-04-01T22:04:50;0.43;;;0.20;;
71655;SDS011;59497;48.798;8.816;2023-04-01T22:07:29;0.52;;;0.20;;
71655;SDS011;59497;48.798;8.816;2023-04-01T22:10:10;1.35;;;0.20;;
71655;SDS011;59497;48.798;8.816;2023-04-01T22:13:25;1.85;;;0.40;;
71655;SDS011;59497;48.798;8.816;2023-04-01T22:17:57;0.97;;;0.40;;
71655;SDS011;59497;48.798;8.816;2023-04-01T22:20:30;0.93;;;0.25;;
71655;SDS011;59497;48.798;8.816;2023-04-01T22:23:02;0.85;;;0.50;;
71655;SDS011;59497;48.798;8.816;2023-04-01T22:25:34;2.63;;;0.30;;
71655;SDS011;59497;48.798;8.816;2023-04-01T22:28:09;2.95;;;0.65;;
71655;SDS011;59497;48.798;8.816;2023-04-01T22:30:50;0.43;;;0.20;;
71655;SDS011;59497;48.798;8.816;2023-04-01T22:33:20;0.60;;;0.40;;
71655;SDS011;59497;48.798;8.816;2023-04-01T22:43:37;0.57;;;0.10;;
71655;SDS011;59497;48.798;8.816;2023-04-01T22:46:09;0.98;;;0.10;;
71655;SDS011;59497;48.798;8.816;2023-04-01T22:51:06;0.38;;;0.00;;
71655;SDS011;59497;48.798;8.816;2023-04-01T22:55:57;0.63;;;0.15;;
71655;SDS011;59497;48.798;8.816;2023-04-01T22:58:26;0.37;;;0.17;;
71655;SDS011;59497;48.798;8.816;2023-04-01T23:00:56;0.28;;;0.10;;
71655;SDS011;59497;48.798;8.816;2023-04-01T23:05:52;0.30;;;0.20;;
71655;SDS011;59497;48.798;8.816;2023-04-01T23:11:02;0.77;;;0.20;;
71655;SDS011;59497;48.798;8.816;2023-04-01T23:13:30;1.75;;;0.20;;
71655;SDS011;59497;48.798;8.816;2023-04-01T23:15:57;1.05;;;0.10;;
71655;SDS011;59497;48.798;8.816;2023-04-01T23:18:24;0.90;;;0.20;;
71655;SDS011;59497;48.798;8.816;2023-04-01T23:26:50;3.47;;;0.60;;
71655;SDS011;59497;48.798;8.816;2023-04-01T23:28:56;1.58;;;0.40;;
71655;SDS011;59497;48.798;8.816;2023-04-01T23:33:53;1.30;;;0.10;;
71655;SDS011;59497;48.798;8.816;2023-04-01T23:36:18;1.48;;;0.20;;
71655;SDS011;59497;48.798;8.816;2023-04-01T23:38:44;0.77;;;0.20;;
71655;SDS011;59497;48.798;8.816;2023-04-01T23:41:23;0.63;;;0.32;;
71655;SDS011;59497;48.798;8.816;2023-04-01T23:43:51;0.77;;;0.35;;
71655;SDS011;59497;48.798;8.816;2023-04-01T23:46:17;1.70;;;0.27;;
71655;SDS011;59497;48.798;8.816;2023-04-01T23:48:43;1.27;;;0.30;;
71655;SDS011;59497;48.798;8.816;2023-04-01T23:51:13;0.53;;;0.20;;
71655;SDS011;59497;48.798;8.816;2023-04-01T23:53:41;0.40;;;0.20;;
71655;SDS011;59497;48.798;8.816;2023-04-01T23:56:08;1.40;;;0.32;;
71655;SDS011;59497;48.798;8.816;2023-04-01T23:58:44;1.30;;;0.20;;
